Time;durP1;ratioP1;P1;durP2;ratioP2;P2;SDS_P1;SDS_P2;PMS_P1;PMS_P2;Temp;Humidity;BMP_temperature;BMP_pressure;BME280_temperature;BME280_humidity;BME280_pressure;Samples;Min_cycle;Max_cycle;Signal;HPM_P1;HPM_P2
2023/06/20 00:01:04;;;;;;;5.88;4.07;;;;;;;;;;5029979;28;20044;-92
2023/06/20 00:03:30;;;;;;;5.75;3.85;;;;;;;;;;5044173;28;20030;-91
2023/06/20 00:05:56;;;;;;;7.28;4.05;;;;;;;;;;5025259;28;20034;-87
2023/06/20 00:08:22;;;;;;;19.10;4.88;;;;;;;;;;5026228;28;20096;-91
2023/06/20 00:10:48;;;;;;;8.70;4.68;;;;;;;;;;5026032;28;20021;-89
2023/06/20 00:13:17;;;;;;;7.18;3.92;;;;;;;;;;5024825;28;20030;-91
2023/06/20 00:15:43;;;;;;;8.45;4.25;;;;;;;;;;5024638;28;20026;-91
2023/06/20 00:18:12;;;;;;;8.13;4.55;;;;;;;;;;5024021;28;20461;-87
2023/06/20 00:20:40;;;;;;;6.78;4.32;;;;;;;;;;5024349;28;20040;-91
2023/06/20 00:23:06;;;;;;;6.20;4.53;;;;;;;;;;5028368;28;20453;-90
2023/06/20 00:25:32;;;;;;;10.85;3.78;;;;;;;;;;5026547;28;20049;-90
2023/06/20 00:27:58;;;;;;;6.68;4.45;;;;;;;;;;5039391;28;20022;-91
2023/06/20 00:30:24;;;;;;;7.43;5.10;;;;;;;;;;5027562;28;20014;-91
2023/06/20 00:32:50;;;;;;;11.93;5.43;;;;;;;;;;5023528;28;20103;-91
2023/06/20 00:35:18;;;;;;;8.45;5.10;;;;;;;;;;5023983;28;20557;-90
2023/06/20 00:37:44;;;;;;;7.82;4.35;;;;;;;;;;5022566;28;20029;-91
2023/06/20 00:40:10;;;;;;;7.97;3.92;;;;;;;;;;5025156;28;20041;-90
2023/06/20 00:42:37;;;;;;;10.55;4.68;;;;;;;;;;5025673;28;20453;-90
2023/06/20 00:45:03;;;;;;;8.98;4.47;;;;;;;;;;5034268;28;20037;-90
2023/06/20 00:47:29;;;;;;;7.55;4.55;;;;;;;;;;5034102;28;20074;-90
2023/06/20 00:49:55;;;;;;;6.80;3.95;;;;;;;;;;5022313;28;20105;-90
2023/06/20 00:52:22;;;;;;;6.07;4.20;;;;;;;;;;5024431;28;20037;-88
2023/06/20 00:54:48;;;;;;;6.05;4.32;;;;;;;;;;5021182;28;20462;-89
2023/06/20 00:57:17;;;;;;;10.20;4.50;;;;;;;;;;5024274;28;20487;-90
2023/06/20 00:59:44;;;;;;;8.20;4.60;;;;;;;;;;5027372;28;20041;-89
2023/06/20 01:02:10;;;;;;;7.78;5.28;;;;;;;;;;5019830;28;20025;-88
2023/06/20 01:04:37;;;;;;;12.70;5.03;;;;;;;;;;5022066;28;20068;-90
2023/06/20 01:07:10;;;;;;;7.85;4.63;;;;;;;;;;5024732;28;20030;-89
2023/06/20 01:09:45;;;;;;;8.30;4.88;;;;;;;;;;5030687;28;20040;-88
2023/06/20 01:12:18;;;;;;;9.73;4.93;;;;;;;;;;5027251;28;20025;-87
2023/06/20 01:14:56;;;;;;;8.40;4.15;;;;;;;;;;5020205;28;21759;-89
2023/06/20 01:17:26;;;;;;;10.23;4.78;;;;;;;;;;5032504;28;20028;-90
2023/06/20 01:20:13;;;;;;;12.32;4.10;;;;;;;;;;5023853;28;20426;-89
2023/06/20 01:22:39;;;;;;;7.28;4.65;;;;;;;;;;5024061;28;20069;-88
2023/06/20 01:25:09;;;;;;;7.13;4.63;;;;;;;;;;5022226;28;20442;-89
2023/06/20 01:27:39;;;;;;;12.48;4.68;;;;;;;;;;5030255;28;20045;-90
2023/06/20 01:30:08;;;;;;;9.77;4.80;;;;;;;;;;5027526;28;20076;-90
2023/06/20 01:32:38;;;;;;;14.55;5.18;;;;;;;;;;5023352;28;20232;-90
2023/06/20 01:35:09;;;;;;;7.35;4.38;;;;;;;;;;5027718;28;20125;-89
2023/06/20 01:37:38;;;;;;;7.20;4.32;;;;;;;;;;5030209;28;20025;-89
2023/06/20 01:40:05;;;;;;;11.10;4.35;;;;;;;;;;5030042;28;20051;-89
2023/06/20 01:42:32;;;;;;;11.57;4.65;;;;;;;;;;5040272;28;20255;-91
2023/06/20 01:44:59;;;;;;;9.68;4.43;;;;;;;;;;5022707;28;20465;-87
2023/06/20 01:47:26;;;;;;;10.35;4.85;;;;;;;;;;5026485;28;20026;-88
2023/06/20 01:49:53;;;;;;;10.48;5.00;;;;;;;;;;5027232;28;20458;-87
2023/06/20 01:52:20;;;;;;;10.38;4.80;;;;;;;;;;5040891;28;20829;-85
2023/06/20 01:54:47;;;;;;;15.27;4.78;;;;;;;;;;5024706;28;20068;-89
2023/06/20 01:57:13;;;;;;;10.95;4.90;;;;;;;;;;5018683;28;20128;-87
2023/06/20 01:59:41;;;;;;;11.25;5.10;;;;;;;;;;5022386;28;20025;-89
2023/06/20 02:02:10;;;;;;;6.60;4.50;;;;;;;;;;5027889;28;20029;-88
2023/06/20 02:04:36;;;;;;;13.70;4.78;;;;;;;;;;5030288;28;20033;-86
2023/06/20 02:07:03;;;;;;;9.70;5.43;;;;;;;;;;5026974;28;20049;-88
2023/06/20 02:09:29;;;;;;;10.35;4.97;;;;;;;;;;5039420;28;20026;-84
2023/06/20 02:11:55;;;;;;;14.07;5.90;;;;;;;;;;5031602;28;20113;-86
2023/06/20 02:14:22;;;;;;;6.90;4.82;;;;;;;;;;5024704;28;20033;-88
2023/06/20 02:16:51;;;;;;;13.38;5.00;;;;;;;;;;5025284;28;20120;-86
2023/06/20 02:19:17;;;;;;;8.13;4.97;;;;;;;;;;5023039;28;20041;-87
2023/06/20 02:21:45;;;;;;;11.65;5.57;;;;;;;;;;5022019;28;20100;-86
2023/06/20 02:24:16;;;;;;;11.10;4.97;;;;;;;;;;5023558;28;20071;-88
2023/06/20 02:26:44;;;;;;;9.57;4.95;;;;;;;;;;5023192;28;20041;-88
2023/06/20 02:29:10;;;;;;;9.82;4.72;;;;;;;;;;5022067;28;20465;-86
2023/06/20 02:31:39;;;;;;;8.65;4.38;;;;;;;;;;5021391;28;20026;-83
2023/06/20 02:34:09;;;;;;;9.02;5.07;;;;;;;;;;5024553;28;20112;-84
2023/06/20 02:36:35;;;;;;;8.77;5.25;;;;;;;;;;5035057;28;20140;-82
2023/06/20 02:39:04;;;;;;;8.05;5.03;;;;;;;;;;5031642;28;20033;-84
2023/06/20 02:41:30;;;;;;;6.35;4.45;;;;;;;;;;5033785;28;20053;-81
2023/06/20 02:43:56;;;;;;;8.63;5.05;;;;;;;;;;5046953;28;20034;-85
2023/06/20 02:46:35;;;;;;;8.70;5.00;;;;;;;;;;5033163;28;20017;-78
2023/06/20 02:49:01;;;;;;;8.38;5.28;;;;;;;;;;5044138;28;20038;-78
2023/06/20 02:51:31;;;;;;;7.57;5.47;;;;;;;;;;5037665;28;20056;-81
2023/06/20 02:54:00;;;;;;;8.32;5.15;;;;;;;;;;5027150;28;20873;-80
2023/06/20 02:56:30;;;;;;;8.35;5.47;;;;;;;;;;5025664;28;20710;-86
2023/06/20 02:58:57;;;;;;;8.57;5.38;;;;;;;;;;5037630;28;20020;-79
2023/06/20 03:01:27;;;;;;;6.90;5.47;;;;;;;;;;5032890;28;20031;-79
2023/06/20 03:03:54;;;;;;;8.18;5.63;;;;;;;;;;5041981;28;20038;-79
2023/06/20 03:06:26;;;;;;;8.30;5.68;;;;;;;;;;5039321;28;20061;-78
2023/06/20 03:08:52;;;;;;;11.82;6.10;;;;;;;;;;5047111;28;20025;-79
2023/06/20 03:11:19;;;;;;;11.35;5.40;;;;;;;;;;5040510;28;20199;-79
2023/06/20 03:13:45;;;;;;;8.05;5.90;;;;;;;;;;5045466;28;20026;-79
2023/06/20 03:16:12;;;;;;;8.25;5.78;;;;;;;;;;5040268;28;20045;-78
2023/06/20 03:18:38;;;;;;;6.88;5.28;;;;;;;;;;5048943;28;20022;-79
2023/06/20 03:21:05;;;;;;;8.77;5.75;;;;;;;;;;5039135;28;20022;-79
2023/06/20 03:23:31;;;;;;;7.78;5.63;;;;;;;;;;5052692;28;20063;-78
2023/06/20 03:25:57;;;;;;;7.95;5.13;;;;;;;;;;5042793;28;20033;-79
2023/06/20 03:28:24;;;;;;;8.23;5.47;;;;;;;;;;5052761;28;20025;-79
2023/06/20 03:30:50;;;;;;;9.43;5.63;;;;;;;;;;5040960;28;20029;-79
2023/06/20 03:33:16;;;;;;;6.82;5.35;;;;;;;;;;5055551;28;20029;-79
2023/06/20 03:35:45;;;;;;;6.38;4.75;;;;;;;;;;5040967;28;20045;-78
2023/06/20 03:38:12;;;;;;;11.13;4.85;;;;;;;;;;5042247;28;20042;-78
2023/06/20 03:40:38;;;;;;;5.55;4.65;;;;;;;;;;5048008;28;20014;-79
2023/06/20 03:43:04;;;;;;;8.15;4.93;;;;;;;;;;5042567;28;20037;-79
2023/06/20 03:45:36;;;;;;;7.78;4.63;;;;;;;;;;5043811;28;20045;-78
2023/06/20 03:48:02;;;;;;;;;;;;;;;;;;5040406;28;20041;-77
2023/06/20 03:50:28;;;;;;;6.70;4.95;;;;;;;;;;5039505;28;19910;-79
2023/06/20 03:52:54;;;;;;;5.22;4.45;;;;;;;;;;5041155;28;20037;-78
2023/06/20 03:55:20;;;;;;;7.80;4.70;;;;;;;;;;5041469;28;20072;-79
2023/06/20 03:57:46;;;;;;;9.70;5.00;;;;;;;;;;5048337;28;20060;-78
2023/06/20 04:00:12;;;;;;;9.07;4.55;;;;;;;;;;5043393;28;20026;-79
2023/06/20 04:02:42;;;;;;;7.13;4.28;;;;;;;;;;5042235;28;20017;-79
2023/06/20 04:05:09;;;;;;;6.13;4.43;;;;;;;;;;5042405;28;20057;-77
2023/06/20 04:07:35;;;;;;;10.25;4.70;;;;;;;;;;5042009;28;20105;-79
2023/06/20 04:10:01;;;;;;;6.18;4.60;;;;;;;;;;5044177;28;20093;-79
2023/06/20 04:12:27;;;;;;;5.10;4.10;;;;;;;;;;5040635;28;20037;-78
2023/06/20 04:14:53;;;;;;;5.20;3.95;;;;;;;;;;5044578;28;20017;-79
2023/06/20 04:17:19;;;;;;;5.70;4.07;;;;;;;;;;5054460;28;20014;-79
2023/06/20 04:19:46;;;;;;;5.82;3.95;;;;;;;;;;5055721;28;20037;-77
2023/06/20 04:22:12;;;;;;;4.97;4.40;;;;;;;;;;5042376;28;20021;-79
2023/06/20 04:24:38;;;;;;;4.40;3.80;;;;;;;;;;5054247;28;20052;-79
2023/06/20 04:27:05;;;;;;;7.70;4.53;;;;;;;;;;5052471;28;20022;-79
2023/06/20 04:29:31;;;;;;;8.45;4.90;;;;;;;;;;5048954;28;20057;-79
2023/06/20 04:31:57;;;;;;;8.05;4.72;;;;;;;;;;5043607;28;20010;-78
2023/06/20 04:34:23;;;;;;;7.75;4.47;;;;;;;;;;5040308;28;20041;-78
2023/06/20 04:36:52;;;;;;;9.55;4.93;;;;;;;;;;5056595;28;20033;-79
2023/06/20 04:39:18;;;;;;;7.45;4.47;;;;;;;;;;5041736;28;20021;-78
2023/06/20 04:41:44;;;;;;;5.75;4.53;;;;;;;;;;5053332;28;20029;-79
2023/06/20 04:44:10;;;;;;;5.65;4.30;;;;;;;;;;5051946;28;20041;-77
2023/06/20 04:46:36;;;;;;;4.70;3.90;;;;;;;;;;5044008;28;20033;-78
2023/06/20 04:49:02;;;;;;;5.72;4.32;;;;;;;;;;5053155;28;20046;-78
2023/06/20 04:51:28;;;;;;;6.05;4.45;;;;;;;;;;5046082;28;20033;-83
2023/06/20 04:53:54;;;;;;;5.35;3.85;;;;;;;;;;5029812;28;20037;-84
2023/06/20 04:56:22;;;;;;;8.18;4.60;;;;;;;;;;5029985;28;20403;-85
2023/06/20 04:58:48;;;;;;;5.88;4.18;;;;;;;;;;5023589;28;21277;-87
2023/06/20 05:01:14;;;;;;;7.88;3.92;;;;;;;;;;5026949;28;20025;-86
2023/06/20 05:03:42;;;;;;;6.40;3.97;;;;;;;;;;5024495;28;20128;-90
2023/06/20 05:06:08;;;;;;;5.43;3.97;;;;;;;;;;5024738;28;20029;-89
2023/06/20 05:08:34;;;;;;;4.15;3.17;;;;;;;;;;5026261;28;20033;-88
2023/06/20 05:11:00;;;;;;;5.97;3.67;;;;;;;;;;5021053;28;20022;-89
2023/06/20 05:13:26;;;;;;;5.82;3.70;;;;;;;;;;5018889;28;20029;-90
2023/06/20 05:15:52;;;;;;;6.65;4.45;;;;;;;;;;5026099;28;20025;-90
2023/06/20 05:18:18;;;;;;;7.38;4.35;;;;;;;;;;5024406;28;20034;-91
2023/06/20 05:20:44;;;;;;;7.22;5.13;;;;;;;;;;5024829;28;20021;-90
2023/06/20 05:23:09;;;;;;;9.13;5.47;;;;;;;;;;5042508;28;20033;-90
2023/06/20 05:25:37;;;;;;;7.85;5.07;;;;;;;;;;5039464;28;20022;-87
2023/06/20 05:28:05;;;;;;;7.63;5.10;;;;;;;;;;5023703;28;20022;-91
2023/06/20 05:30:34;;;;;;;9.07;5.63;;;;;;;;;;5024870;28;20080;-90
2023/06/20 05:33:00;;;;;;;7.40;5.35;;;;;;;;;;5024877;28;20037;-88
2023/06/20 05:35:26;;;;;;;8.00;4.78;;;;;;;;;;5038426;28;20844;-91
2023/06/20 05:37:52;;;;;;;11.05;5.43;;;;;;;;;;5019600;28;20045;-89
2023/06/20 05:40:18;;;;;;;6.72;5.10;;;;;;;;;;5025928;28;20037;-91
2023/06/20 05:42:44;;;;;;;6.60;4.78;;;;;;;;;;5024161;28;20092;-88
2023/06/20 05:45:11;;;;;;;7.57;4.30;;;;;;;;;;5023624;28;20088;-91
2023/06/20 05:47:37;;;;;;;7.13;4.50;;;;;;;;;;5023727;28;20030;-90
2023/06/20 05:50:03;;;;;;;11.45;6.90;;;;;;;;;;5025955;28;20041;-87
2023/06/20 05:52:29;;;;;;;9.40;6.85;;;;;;;;;;5022345;28;20029;-87
2023/06/20 05:54:55;;;;;;;7.65;5.80;;;;;;;;;;5025182;28;20042;-91
2023/06/20 05:57:21;;;;;;;6.45;5.32;;;;;;;;;;5034261;28;20434;-92
2023/06/20 05:59:48;;;;;;;7.35;5.40;;;;;;;;;;5026419;28;20034;-89
2023/06/20 06:02:15;;;;;;;7.80;5.25;;;;;;;;;;5023579;28;20021;-92
2023/06/20 06:04:43;;;;;;;10.02;6.53;;;;;;;;;;5024779;28;20092;-89
2023/06/20 06:07:10;;;;;;;7.65;6.43;;;;;;;;;;5025782;28;20446;-90
2023/06/20 06:09:35;;;;;;;7.15;4.93;;;;;;;;;;5040932;28;20040;-90
2023/06/20 06:12:01;;;;;;;9.18;5.43;;;;;;;;;;5018746;28;20413;-89
2023/06/20 06:14:27;;;;;;;9.20;4.82;;;;;;;;;;5021587;28;20045;-88
2023/06/20 06:16:55;;;;;;;6.63;5.07;;;;;;;;;;5032089;28;20124;-88
2023/06/20 06:19:24;;;;;;;7.05;4.45;;;;;;;;;;5022929;28;20104;-88
2023/06/20 06:21:50;;;;;;;6.50;4.43;;;;;;;;;;5038772;28;20030;-89
2023/06/20 06:24:16;;;;;;;8.65;5.38;;;;;;;;;;5025092;28;20040;-90
2023/06/20 06:26:42;;;;;;;8.35;5.00;;;;;;;;;;5024569;28;20047;-89
2023/06/20 06:29:08;;;;;;;12.82;5.88;;;;;;;;;;5020886;28;20018;-90
2023/06/20 06:31:35;;;;;;;8.52;5.43;;;;;;;;;;5022385;28;20113;-89
2023/06/20 06:34:03;;;;;;;7.60;5.18;;;;;;;;;;5022634;28;20057;-88
2023/06/20 06:36:33;;;;;;;8.50;4.68;;;;;;;;;;5021981;28;20021;-91
2023/06/20 06:38:59;;;;;;;8.15;4.47;;;;;;;;;;5017539;28;20046;-90
2023/06/20 06:41:25;;;;;;;6.82;5.25;;;;;;;;;;5022860;28;20025;-91
2023/06/20 06:43:51;;;;;;;6.13;4.40;;;;;;;;;;5025673;28;20036;-91
2023/06/20 06:46:17;;;;;;;8.10;4.47;;;;;;;;;;5026518;28;20187;-89
2023/06/20 06:48:43;;;;;;;6.93;4.57;;;;;;;;;;5025429;28;20146;-89
2023/06/20 06:51:09;;;;;;;4.57;4.13;;;;;;;;;;5026332;28;20022;-90
2023/06/20 06:53:37;;;;;;;6.82;4.65;;;;;;;;;;5026799;28;20089;-87
2023/06/20 06:56:03;;;;;;;6.97;4.55;;;;;;;;;;5025024;28;20109;-90
2023/06/20 06:58:29;;;;;;;6.40;3.95;;;;;;;;;;5024513;28;20431;-88
2023/06/20 07:00:58;;;;;;;5.72;4.15;;;;;;;;;;5044724;28;20089;-91
2023/06/20 07:03:24;;;;;;;4.90;3.65;;;;;;;;;;5043126;28;20979;-91
2023/06/20 07:05:50;;;;;;;7.22;4.55;;;;;;;;;;5028957;28;20597;-90
2023/06/20 07:08:16;;;;;;;10.05;3.92;;;;;;;;;;5026861;28;20038;-91
2023/06/20 07:10:42;;;;;;;9.63;3.55;;;;;;;;;;5042633;28;20057;-90
2023/06/20 07:13:08;;;;;;;7.75;4.00;;;;;;;;;;5026951;28;20033;-90
2023/06/20 07:15:34;;;;;;;7.20;3.85;;;;;;;;;;5034082;28;21816;-90
2023/06/20 07:18:00;;;;;;;6.00;3.95;;;;;;;;;;5027583;28;20187;-87
2023/06/20 07:20:26;;;;;;;7.35;4.07;;;;;;;;;;5033844;28;20347;-89
2023/06/20 07:22:52;;;;;;;9.73;4.05;;;;;;;;;;5025162;28;20037;-87
2023/06/20 07:25:20;;;;;;;8.07;5.35;;;;;;;;;;5026613;28;20029;-90
2023/06/20 07:27:46;;;;;;;6.45;4.10;;;;;;;;;;5041079;28;20095;-90
2023/06/20 07:30:12;;;;;;;6.03;4.00;;;;;;;;;;5025246;28;20029;-87
2023/06/20 07:32:38;;;;;;;10.05;4.38;;;;;;;;;;5025857;28;20065;-92
2023/06/20 07:35:07;;;;;;;8.30;4.30;;;;;;;;;;5026105;28;20052;-93
2023/06/20 07:37:33;;;;;;;12.05;4.30;;;;;;;;;;5033357;28;20018;-90
2023/06/20 07:39:59;;;;;;;8.50;4.53;;;;;;;;;;5026494;28;20071;-90
2023/06/20 07:42:25;;;;;;;6.50;3.92;;;;;;;;;;5028016;28;20036;-88
2023/06/20 07:44:51;;;;;;;11.75;4.20;;;;;;;;;;5026028;28;20061;-89
2023/06/20 07:47:17;;;;;;;6.03;3.70;;;;;;;;;;5028881;28;20068;-94
2023/06/20 07:49:43;;;;;;;6.75;3.42;;;;;;;;;;5025627;28;20025;-89
2023/06/20 07:52:09;;;;;;;6.15;4.40;;;;;;;;;;5032196;28;20041;-93
2023/06/20 07:54:35;;;;;;;8.38;4.50;;;;;;;;;;5025290;28;20042;-94
2023/06/20 07:57:01;;;;;;;19.00;7.78;;;;;;;;;;5029410;28;20048;-92
2023/06/20 07:59:27;;;;;;;5.95;4.85;;;;;;;;;;5027270;28;20565;-88
2023/06/20 08:01:53;;;;;;;5.50;4.95;;;;;;;;;;5031014;28;20110;-88
2023/06/20 08:04:21;;;;;;;6.07;4.85;;;;;;;;;;5029283;28;20466;-88
2023/06/20 08:06:48;;;;;;;5.63;4.80;;;;;;;;;;5021032;28;20018;-90
2023/06/20 08:09:14;;;;;;;7.72;5.05;;;;;;;;;;5024522;28;20037;-92
2023/06/20 08:11:40;;;;;;;6.82;4.35;;;;;;;;;;5031377;28;20022;-92
2023/06/20 08:14:06;;;;;;;4.97;4.28;;;;;;;;;;5026632;28;20037;-93
2023/06/20 08:16:32;;;;;;;6.85;4.05;;;;;;;;;;5025109;28;20025;-89
2023/06/20 08:18:58;;;;;;;7.38;4.93;;;;;;;;;;5023157;28;20017;-88
2023/06/20 08:21:27;;;;;;;11.18;5.28;;;;;;;;;;5023287;28;20366;-92
2023/06/20 08:23:53;;;;;;;6.75;4.63;;;;;;;;;;5024180;28;20021;-90
2023/06/20 08:26:19;;;;;;;6.57;4.35;;;;;;;;;;5021072;28;20032;-93
2023/06/20 08:28:45;;;;;;;5.30;4.32;;;;;;;;;;5021988;28;20041;-91
2023/06/20 08:31:11;;;;;;;5.65;4.68;;;;;;;;;;5024089;28;20033;-93
2023/06/20 08:33:37;;;;;;;5.28;4.22;;;;;;;;;;5023602;28;20030;-90
2023/06/20 08:36:04;;;;;;;9.18;4.90;;;;;;;;;;5024568;28;20026;-87
2023/06/20 08:38:30;;;;;;;7.88;4.93;;;;;;;;;;5023398;28;20021;-89
2023/06/20 08:40:56;;;;;;;6.47;4.78;;;;;;;;;;5027353;28;20056;-93
2023/06/20 08:43:22;;;;;;;6.80;4.40;;;;;;;;;;5027129;28;20053;-91
2023/06/20 08:45:48;;;;;;;6.72;4.57;;;;;;;;;;5025035;28;20034;-92
2023/06/20 08:48:14;;;;;;;5.13;4.63;;;;;;;;;;5024432;28;20022;-93
2023/06/20 08:50:40;;;;;;;7.00;4.20;;;;;;;;;;5025116;28;20079;-91
2023/06/20 08:53:09;;;;;;;4.50;4.07;;;;;;;;;;5022738;28;20018;-91
2023/06/20 08:55:35;;;;;;;6.03;4.10;;;;;;;;;;5040945;28;20034;-91
2023/06/20 08:58:01;;;;;;;6.47;3.97;;;;;;;;;;5023697;28;20450;-91
2023/06/20 09:00:28;;;;;;;8.27;4.05;;;;;;;;;;5023139;28;20034;-87
2023/06/20 09:02:55;;;;;;;6.03;4.15;;;;;;;;;;5024743;28;20128;-90
2023/06/20 09:05:21;;;;;;;6.57;4.22;;;;;;;;;;5023546;28;20109;-92
2023/06/20 09:07:47;;;;;;;7.40;4.80;;;;;;;;;;5028989;28;20025;-89
2023/06/20 09:10:19;;;;;;;5.97;3.85;;;;;;;;;;5022989;28;20026;-90
2023/06/20 09:12:46;;;;;;;4.15;3.75;;;;;;;;;;5041293;28;20353;-91
2023/06/20 09:15:14;;;;;;;8.20;4.50;;;;;;;;;;5024590;28;20021;-90
2023/06/20 09:17:40;;;;;;;6.40;4.15;;;;;;;;;;5024919;28;20107;-91
2023/06/20 09:20:07;;;;;;;9.93;3.60;;;;;;;;;;5038355;28;20017;-90
2023/06/20 09:22:33;;;;;;;6.88;3.85;;;;;;;;;;5023437;28;20096;-90
2023/06/20 09:25:03;;;;;;;4.20;3.80;;;;;;;;;;5019421;28;20034;-88
2023/06/20 09:27:34;;;;;;;4.30;3.78;;;;;;;;;;5023327;28;20014;-91
2023/06/20 09:30:03;;;;;;;5.70;4.13;;;;;;;;;;5021476;28;20056;-93
2023/06/20 09:32:33;;;;;;;4.35;3.90;;;;;;;;;;5025793;28;20040;-92
2023/06/20 09:35:01;;;;;;;8.38;3.97;;;;;;;;;;5018319;28;20022;-91
2023/06/20 09:37:35;;;;;;;5.20;4.22;;;;;;;;;;5018317;28;20033;-91
2023/06/20 09:40:06;;;;;;;5.43;4.20;;;;;;;;;;5021180;28;20034;-90
2023/06/20 09:42:33;;;;;;;12.48;4.78;;;;;;;;;;5039875;28;20051;-91
2023/06/20 09:44:59;;;;;;;7.68;4.03;;;;;;;;;;5022720;28;20506;-92
2023/06/20 09:47:25;;;;;;;5.28;3.85;;;;;;;;;;5027745;28;20022;-91
2023/06/20 09:49:57;;;;;;;4.63;3.95;;;;;;;;;;5024552;28;20037;-86
2023/06/20 09:52:25;;;;;;;6.90;4.32;;;;;;;;;;5028776;28;20021;-91
2023/06/20 09:54:51;;;;;;;6.00;4.07;;;;;;;;;;5030174;28;20175;-90
2023/06/20 09:57:23;;;;;;;12.48;4.32;;;;;;;;;;5028787;28;20037;-91
2023/06/20 09:59:50;;;;;;;7.55;3.90;;;;;;;;;;5023919;28;20358;-89
2023/06/20 10:02:17;;;;;;;6.22;3.80;;;;;;;;;;5024924;28;20033;-91
2023/06/20 10:04:43;;;;;;;6.55;3.22;;;;;;;;;;5023485;28;20104;-89
2023/06/20 10:07:14;;;;;;;5.65;3.85;;;;;;;;;;5022826;28;20566;-91
2023/06/20 10:09:41;;;;;;;3.80;3.40;;;;;;;;;;5023362;28;20037;-88
2023/06/20 10:12:08;;;;;;;4.60;3.70;;;;;;;;;;5023957;28;20022;-88
2023/06/20 10:14:34;;;;;;;5.53;3.13;;;;;;;;;;5023160;28;20120;-91
2023/06/20 10:17:11;;;;;;;5.70;2.88;;;;;;;;;;5024921;28;20021;-90
2023/06/20 10:19:48;;;;;;;5.50;2.83;;;;;;;;;;5024694;28;20389;-89
2023/06/20 10:22:14;;;;;;;4.03;3.10;;;;;;;;;;5027527;28;20026;-91
2023/06/20 10:24:41;;;;;;;5.60;3.67;;;;;;;;;;5019861;28;20033;-87
2023/06/20 10:27:09;;;;;;;6.55;3.10;;;;;;;;;;5023632;28;20033;-89
2023/06/20 10:29:41;;;;;;;3.88;3.30;;;;;;;;;;5021418;28;20026;-89
2023/06/20 10:32:08;;;;;;;5.95;3.83;;;;;;;;;;5031289;28;20041;-90
2023/06/20 10:34:35;;;;;;;4.53;3.30;;;;;;;;;;5023968;28;20033;-92
2023/06/20 10:37:35;;;;;;;4.90;3.72;;;;;;;;;;5029263;28;20458;-90
2023/06/20 10:40:04;;;;;;;4.82;3.35;;;;;;;;;;5031448;28;20132;-88
2023/06/20 10:42:30;;;;;;;5.03;4.22;;;;;;;;;;5022281;28;20384;-88
2023/06/20 10:45:15;;;;;;;5.57;4.10;;;;;;;;;;5023836;28;20045;-87
2023/06/20 10:47:42;;;;;;;7.75;4.20;;;;;;;;;;5020446;28;20034;-86
2023/06/20 10:50:10;;;;;;;9.05;3.95;;;;;;;;;;5026266;28;20048;-89
2023/06/20 10:52:37;;;;;;;7.75;3.80;;;;;;;;;;5026573;28;20014;-83
2023/06/20 10:55:03;;;;;;;6.28;3.40;;;;;;;;;;5021431;28;20136;-85
2023/06/20 10:57:29;;;;;;;4.72;3.60;;;;;;;;;;5025727;28;20051;-85
2023/06/20 10:59:55;;;;;;;7.30;4.03;;;;;;;;;;5022593;28;20350;-87
2023/06/20 11:02:22;;;;;;;8.38;4.03;;;;;;;;;;5036354;28;20036;-84
2023/06/20 11:04:48;;;;;;;6.00;3.90;;;;;;;;;;5020932;28;20053;-86
2023/06/20 11:07:14;;;;;;;5.65;4.03;;;;;;;;;;5019705;28;21589;-86
2023/06/20 11:09:40;;;;;;;6.40;4.35;;;;;;;;;;5041948;28;20030;-86
2023/06/20 11:12:09;;;;;;;5.72;3.97;;;;;;;;;;5024429;28;20021;-86
2023/06/20 11:14:36;;;;;;;6.30;3.60;;;;;;;;;;5037682;28;20030;-88
2023/06/20 11:17:02;;;;;;;5.30;3.58;;;;;;;;;;5041732;28;20033;-86
2023/06/20 11:19:30;;;;;;;5.72;3.72;;;;;;;;;;5033127;28;20029;-86
2023/06/20 11:21:56;;;;;;;5.53;3.80;;;;;;;;;;5024386;28;20183;-86
2023/06/20 11:24:22;;;;;;;3.92;3.13;;;;;;;;;;5021868;28;20084;-86
2023/06/20 11:26:48;;;;;;;4.63;3.45;;;;;;;;;;5021377;28;20025;-87
2023/06/20 11:29:14;;;;;;;4.50;3.10;;;;;;;;;;5022729;28;20027;-86
2023/06/20 11:31:40;;;;;;;5.00;3.38;;;;;;;;;;5023651;28;20040;-88
2023/06/20 11:34:07;;;;;;;6.38;3.30;;;;;;;;;;5026402;28;20033;-86
2023/06/20 11:36:37;;;;;;;4.72;3.22;;;;;;;;;;5023226;28;20078;-87
2023/06/20 11:39:07;;;;;;;4.18;3.78;;;;;;;;;;5022246;28;20026;-87
2023/06/20 11:41:33;;;;;;;5.57;3.40;;;;;;;;;;5020971;28;20053;-87
2023/06/20 11:43:59;;;;;;;5.57;3.53;;;;;;;;;;5024934;28;20032;-85
2023/06/20 11:46:26;;;;;;;7.28;3.30;;;;;;;;;;5025757;28;20033;-86
2023/06/20 11:48:53;;;;;;;4.45;3.40;;;;;;;;;;5027164;28;20140;-86
2023/06/20 11:51:26;;;;;;;5.85;3.40;;;;;;;;;;5024291;28;20040;-86
2023/06/20 11:54:02;;;;;;;5.38;3.22;;;;;;;;;;5022759;28;20030;-86
2023/06/20 11:56:28;;;;;;;3.80;3.22;;;;;;;;;;5025397;28;20026;-87
2023/06/20 11:58:54;;;;;;;3.40;3.00;;;;;;;;;;5023710;28;20098;-87
2023/06/20 12:01:24;;;;;;;4.30;3.13;;;;;;;;;;5045091;28;20029;-86
2023/06/20 12:04:06;;;;;;;3.58;3.28;;;;;;;;;;5022596;28;20038;-87
2023/06/20 12:06:32;;;;;;;8.13;3.80;;;;;;;;;;5027171;28;20095;-87
2023/06/20 12:09:09;;;;;;;6.40;3.75;;;;;;;;;;5025693;28;20034;-85
2023/06/20 12:11:38;;;;;;;4.18;3.40;;;;;;;;;;5026359;28;20049;-87
2023/06/20 12:14:04;;;;;;;5.60;3.30;;;;;;;;;;5025745;28;21662;-86
2023/06/20 12:16:31;;;;;;;3.95;2.75;;;;;;;;;;5027306;28;20033;-85
2023/06/20 12:18:59;;;;;;;3.08;2.30;;;;;;;;;;5022094;28;20146;-86
2023/06/20 12:21:26;;;;;;;4.88;2.50;;;;;;;;;;5028086;28;20074;-87
2023/06/20 12:23:52;;;;;;;3.17;2.60;;;;;;;;;;5021379;28;20100;-86
2023/06/20 12:26:18;;;;;;;5.15;2.70;;;;;;;;;;5032955;28;20644;-87
2023/06/20 12:28:45;;;;;;;6.40;2.55;;;;;;;;;;5026043;28;20026;-88
2023/06/20 12:31:12;;;;;;;3.05;2.70;;;;;;;;;;5032428;28;21739;-85
2023/06/20 12:33:38;;;;;;;4.95;2.90;;;;;;;;;;5021864;28;20022;-86
2023/06/20 12:36:05;;;;;;;4.10;2.92;;;;;;;;;;5025867;28;20037;-85
2023/06/20 12:38:31;;;;;;;4.43;3.30;;;;;;;;;;5022639;28;20115;-87
2023/06/20 12:41:00;;;;;;;3.05;2.75;;;;;;;;;;5025822;28;20080;-87
2023/06/20 12:43:26;;;;;;;3.50;3.20;;;;;;;;;;5039161;28;20069;-86
2023/06/20 12:45:52;;;;;;;6.18;3.70;;;;;;;;;;5022369;28;20108;-86
2023/06/20 12:48:19;;;;;;;4.53;3.33;;;;;;;;;;5023105;28;20409;-86
2023/06/20 12:50:45;;;;;;;4.25;3.28;;;;;;;;;;5033364;28;20021;-87
2023/06/20 12:53:11;;;;;;;5.57;3.08;;;;;;;;;;5021204;28;20030;-84
2023/06/20 12:55:37;;;;;;;4.93;3.17;;;;;;;;;;5026020;28;20076;-87
2023/06/20 12:58:03;;;;;;;4.35;3.20;;;;;;;;;;5025962;28;20029;-87
2023/06/20 13:00:29;;;;;;;5.28;3.15;;;;;;;;;;5023503;28;20060;-84
2023/06/20 13:02:55;;;;;;;3.58;2.88;;;;;;;;;;5025796;28;20052;-87
2023/06/20 13:05:22;;;;;;;3.90;3.50;;;;;;;;;;5026422;28;20105;-85
2023/06/20 13:07:48;;;;;;;3.33;2.72;;;;;;;;;;5024114;28;20812;-87
2023/06/20 13:10:16;;;;;;;6.38;3.60;;;;;;;;;;5023055;28;20034;-86
2023/06/20 13:12:42;;;;;;;4.47;3.20;;;;;;;;;;5024231;28;20105;-87
2023/06/20 13:15:09;;;;;;;8.00;3.03;;;;;;;;;;5098237;22;20098;-88
2023/06/20 13:17:36;;;;;;;4.18;3.35;;;;;;;;;;5053377;28;20373;-87
2023/06/20 13:20:06;;;;;;;6.15;3.40;;;;;;;;;;5044156;28;20083;-87
2023/06/20 13:22:32;;;;;;;4.13;2.85;;;;;;;;;;5043101;28;20021;-87
2023/06/20 13:24:58;;;;;;;10.73;3.00;;;;;;;;;;5042278;28;20029;-87
2023/06/20 13:27:26;;;;;;;3.80;2.75;;;;;;;;;;5044530;28;20468;-87
2023/06/20 13:29:57;;;;;;;3.10;2.78;;;;;;;;;;5041336;28;20029;-86
2023/06/20 13:32:23;;;;;;;4.50;3.00;;;;;;;;;;5043724;28;20032;-87
2023/06/20 13:34:49;;;;;;;4.53;2.85;;;;;;;;;;5048084;28;20033;-88
2023/06/20 13:37:16;;;;;;;4.80;3.30;;;;;;;;;;5042965;28;20074;-86
2023/06/20 13:39:44;;;;;;;3.42;3.13;;;;;;;;;;5043974;28;20030;-87
2023/06/20 13:42:13;;;;;;;3.85;2.90;;;;;;;;;;5043179;28;20106;-87
2023/06/20 13:44:39;;;;;;;9.38;3.38;;;;;;;;;;5045824;28;20026;-88
2023/06/20 13:47:05;;;;;;;5.38;2.70;;;;;;;;;;5041299;28;20079;-88
2023/06/20 13:49:33;;;;;;;4.93;2.83;;;;;;;;;;5050347;28;20025;-86
2023/06/20 13:51:59;;;;;;;3.92;2.97;;;;;;;;;;5057296;28;20025;-88
2023/06/20 13:54:25;;;;;;;3.00;2.65;;;;;;;;;;5043847;28;20031;-86
2023/06/20 13:56:51;;;;;;;3.78;2.88;;;;;;;;;;5046197;28;20105;-86
2023/06/20 13:59:17;;;;;;;6.45;3.08;;;;;;;;;;5045037;28;20030;-88
2023/06/20 14:01:44;;;;;;;4.05;2.70;;;;;;;;;;5046795;28;20018;-86
2023/06/20 14:04:10;;;;;;;6.05;2.97;;;;;;;;;;5051226;28;20024;-88
2023/06/20 14:06:38;;;;;;;3.30;2.58;;;;;;;;;;5040714;28;20028;-87
2023/06/20 14:09:05;;;;;;;3.45;2.70;;;;;;;;;;5042899;28;20798;-86
2023/06/20 14:11:31;;;;;;;4.65;2.70;;;;;;;;;;5045927;28;21910;-87
2023/06/20 14:13:57;;;;;;;3.28;2.50;;;;;;;;;;5050010;28;20074;-87
2023/06/20 14:16:24;;;;;;;6.88;2.60;;;;;;;;;;5047818;28;20020;-87
2023/06/20 14:18:51;;;;;;;4.70;2.28;;;;;;;;;;5048225;28;20025;-86
2023/06/20 14:21:18;;;;;;;4.35;2.50;;;;;;;;;;5039899;28;20052;-87
2023/06/20 14:23:45;;;;;;;2.83;2.13;;;;;;;;;;5041815;28;20032;-87
2023/06/20 14:26:11;;;;;;;4.07;3.20;;;;;;;;;;5043207;28;20041;-87
2023/06/20 14:28:37;;;;;;;3.50;2.65;;;;;;;;;;5042658;28;20037;-87
2023/06/20 14:31:03;;;;;;;3.10;2.42;;;;;;;;;;5045792;28;20022;-87
2023/06/20 14:33:29;;;;;;;2.90;2.65;;;;;;;;;;5042986;28;20032;-87
2023/06/20 14:35:58;;;;;;;2.85;2.60;;;;;;;;;;5043113;28;20628;-87
2023/06/20 14:38:24;;;;;;;4.35;2.50;;;;;;;;;;5042065;28;20044;-86
2023/06/20 14:40:50;;;;;;;3.63;2.42;;;;;;;;;;5043152;28;20025;-87